Terminal Aerodrome Forecast
Issued by NWS

Home | Current Version | Previous Version | Text Only | Print | Product List | Glossary On
Versions: 1 2 3 4 5 6 7 8 9 10 11 12 13 14 15 16 17
000
FTUS44 KLZK 281916 AAA
TAFBPK
TAF AMD
KBPK 281916Z 2819/2918 14006KT P6SM OVC030
     FM282000 10007KT P6SM SCT015 OVC060
     FM290200 11008KT P6SM VCSH BKN020 BKN060
     FM291000 14009KT P6SM OVC010
      TEMPO 2910/2914 4SM BR
     FM291400 13012KT P6SM OVC020=

USA.gov is the U.S. government's official web portal to all federal, state and local government web resources and services.